Terminal Aerodrome Forecast
Issued by NWS Duluth, MN

Home | Current Version | Previous Version | Text Only | Print | Product List | Glossary On
Versions: 1 2 3 4 5 6 7 8 9 10 11 12 13 14 15 16 17 18 19 20 21 22 23 24 25 26 27 28 29 30 31
000
FTUS43 KDLH 020542
TAFDLH
TAF
KDLH 020542Z 0206/0306 03004KT 6SM HZ BR VCSH SCT080
     FM020900 11002KT 6SM HZ BR VCTS BKN050CB OVC080
      TEMPO 0209/0213 3SM HZ BR BKN009
     FM021500 09008KT P6SM SCT022 SCT080
     FM030100 06005KT 6SM HZ BR SCT040=

USA.gov is the U.S. government's official web portal to all federal, state and local government web resources and services.